Time;durP1;ratioP1;P1;durP2;ratioP2;P2;SDS_P1;SDS_P2;PMS_P1;PMS_P2;Temp;Humidity;BMP_temperature;BMP_pressure;BME280_temperature;BME280_humidity;BME280_pressure;Samples;Min_cycle;Max_cycle;Signal;HPM_P1;HPM_P2
2021/12/18 00:01:01;;;;;;;10.40;1.65;;;;;;;;;;5001394;28;20061;-47
2021/12/18 00:03:29;;;;;;;6.82;1.90;;;;;;;;;;4997776;28;20058;-50
2021/12/18 00:05:55;;;;;;;8.20;2.28;;;;;;;;;;4994833;28;20022;-52
2021/12/18 00:08:23;;;;;;;6.20;1.77;;;;;;;;;;5001988;28;20097;-48
2021/12/18 00:10:50;;;;;;;12.10;2.05;;;;;;;;;;4995930;28;20037;-47
2021/12/18 00:13:17;;;;;;;6.78;1.27;;;;;;;;;;4995449;28;20025;-56
2021/12/18 00:15:44;;;;;;;9.95;1.95;;;;;;;;;;4991919;28;20038;-48
2021/12/18 00:18:11;;;;;;;9.13;1.65;;;;;;;;;;4994622;28;20034;-56
2021/12/18 00:20:38;;;;;;;6.32;1.40;;;;;;;;;;5001413;28;20080;-49
2021/12/18 00:23:06;;;;;;;8.05;1.40;;;;;;;;;;5000636;28;20057;-50
2021/12/18 00:25:34;;;;;;;7.88;1.65;;;;;;;;;;4991920;28;20030;-55
2021/12/18 00:28:01;;;;;;;7.72;1.70;;;;;;;;;;4999617;28;20711;-51
2021/12/18 00:30:28;;;;;;;5.70;1.73;;;;;;;;;;4978285;28;20740;-58
2021/12/18 00:32:55;;;;;;;11.32;2.08;;;;;;;;;;4998098;28;20032;-48
2021/12/18 00:35:22;;;;;;;9.35;1.90;;;;;;;;;;4997353;28;20375;-55
2021/12/18 00:37:49;;;;;;;8.55;1.75;;;;;;;;;;5002423;28;20064;-52
2021/12/18 00:40:24;;;;;;;10.15;2.22;;;;;;;;;;4981696;28;20034;-55
2021/12/18 00:43:13;;;;;;;8.45;1.90;;;;;;;;;;5002437;28;20059;-54
2021/12/18 00:45:38;;;;;;;11.13;2.25;;;;;;;;;;4997706;28;20030;-52
2021/12/18 00:48:05;;;;;;;6.85;1.70;;;;;;;;;;4993681;28;20701;-49
2021/12/18 00:50:33;;;;;;;10.45;2.17;;;;;;;;;;5000934;28;20026;-52
2021/12/18 00:53:00;;;;;;;10.50;2.08;;;;;;;;;;4999463;28;20084;-55
2021/12/18 00:55:27;;;;;;;12.63;2.03;;;;;;;;;;5002268;28;20514;-53
2021/12/18 00:57:54;;;;;;;12.70;2.63;;;;;;;;;;5002768;28;20105;-50
2021/12/18 01:00:24;;;;;;;12.27;2.78;;;;;;;;;;5002893;28;20149;-53
2021/12/18 01:02:55;;;;;;;9.10;2.55;;;;;;;;;;4993316;28;20105;-52
2021/12/18 01:05:23;;;;;;;13.65;2.72;;;;;;;;;;4992116;28;20037;-51
2021/12/18 01:07:50;;;;;;;17.45;4.65;;;;;;;;;;5003023;28;20053;-57
2021/12/18 01:10:50;;;;;;;20.08;4.55;;;;;;;;;;4996172;28;20041;-57
2021/12/18 01:13:22;;;;;;;21.13;5.70;;;;;;;;;;5000980;28;20022;-52
2021/12/18 01:15:53;;;;;;;21.33;5.68;;;;;;;;;;5001044;28;20048;-53
2021/12/18 01:23:51;;;;;;;26.58;6.97;;;;;;;;;;4993447;28;20037;-57
2021/12/18 01:26:18;;;;;;;27.88;7.50;;;;;;;;;;5001681;28;20080;-55
2021/12/18 01:28:46;;;;;;;37.80;7.20;;;;;;;;;;4998150;28;20026;-56
2021/12/18 01:31:16;;;;;;;28.42;6.65;;;;;;;;;;5001510;28;20395;-50
2021/12/18 01:33:43;;;;;;;22.42;6.43;;;;;;;;;;4999712;28;20030;-57
2021/12/18 01:36:10;;;;;;;25.77;7.05;;;;;;;;;;5001352;28;20081;-53
2021/12/18 01:38:37;;;;;;;23.75;6.15;;;;;;;;;;4992572;28;20018;-52
2021/12/18 01:41:05;;;;;;;18.25;5.80;;;;;;;;;;4991457;28;20054;-49
2021/12/18 01:51:33;;;;;;;21.95;6.57;;;;;;;;;;4991269;28;20084;-48
2021/12/18 01:54:01;;;;;;;18.65;6.65;;;;;;;;;;4975150;28;20054;-57
2021/12/18 01:56:29;;;;;;;14.75;5.93;;;;;;;;;;4990595;28;20046;-51
2021/12/18 01:58:56;;;;;;;19.60;6.13;;;;;;;;;;4973725;28;20022;-52
2021/12/18 02:01:23;;;;;;;11.98;4.93;;;;;;;;;;4993243;28;20056;-55
2021/12/18 02:03:51;;;;;;;16.42;5.45;;;;;;;;;;4996611;28;20069;-56
2021/12/18 02:06:18;;;;;;;13.73;4.75;;;;;;;;;;5001650;28;20470;-53
2021/12/18 02:08:46;;;;;;;12.77;4.88;;;;;;;;;;4995555;28;20030;-51
2021/12/18 02:22:00;;;;;;;15.95;4.50;;;;;;;;;;4998681;28;20041;-52
2021/12/18 02:24:31;;;;;;;8.63;3.08;;;;;;;;;;4999298;28;20021;-54
2021/12/18 02:27:00;;;;;;;7.35;2.38;;;;;;;;;;5000144;28;20014;-50
2021/12/18 02:29:31;;;;;;;8.85;2.70;;;;;;;;;;4983913;28;20410;-49
2021/12/18 02:31:58;;;;;;;15.38;4.18;;;;;;;;;;5000261;28;20033;-50
2021/12/18 02:34:30;;;;;;;11.80;3.75;;;;;;;;;;4998496;28;20670;-52
2021/12/18 02:37:05;;;;;;;;;;;;;;;;;;4999344;28;20127;-53
2021/12/18 02:42:22;;;;;;;6.00;2.28;;;;;;;;;;5001676;28;20052;-50
2021/12/18 02:44:51;;;;;;;9.48;3.10;;;;;;;;;;4997123;28;20478;-56
2021/12/18 02:47:20;;;;;;;7.70;1.80;;;;;;;;;;5004135;28;20475;-55
2021/12/18 02:49:50;;;;;;;10.27;2.17;;;;;;;;;;4996778;28;20038;-51
2021/12/18 02:52:20;;;;;;;13.32;2.65;;;;;;;;;;5003524;28;20019;-53
2021/12/18 02:54:49;;;;;;;7.55;2.30;;;;;;;;;;5002393;28;20050;-49
2021/12/18 02:57:16;;;;;;;6.93;2.13;;;;;;;;;;5001380;28;20363;-47
2021/12/18 02:59:45;;;;;;;12.60;2.08;;;;;;;;;;5006806;28;20022;-50
2021/12/18 03:02:14;;;;;;;10.68;2.53;;;;;;;;;;4980593;28;20057;-56
2021/12/18 03:04:44;;;;;;;7.72;2.33;;;;;;;;;;5001957;28;20041;-52
2021/12/18 03:07:15;;;;;;;5.78;1.17;;;;;;;;;;5004560;28;20076;-53
2021/12/18 03:21:18;;;;;;;8.60;1.67;;;;;;;;;;5003312;28;20477;-52
2021/12/18 03:26:03;;;;;;;6.85;1.55;;;;;;;;;;5000135;28;20045;-51
2021/12/18 03:28:34;;;;;;;11.65;1.70;;;;;;;;;;5002612;28;20033;-49
2021/12/18 03:31:02;;;;;;;6.13;1.65;;;;;;;;;;4984391;28;20029;-51
2021/12/18 03:33:29;;;;;;;8.93;1.20;;;;;;;;;;5001912;28;20552;-58
2021/12/18 03:35:57;;;;;;;7.70;1.50;;;;;;;;;;4996439;28;20033;-50
2021/12/18 03:38:25;;;;;;;4.35;1.17;;;;;;;;;;4999795;28;20022;-55
2021/12/18 03:40:53;;;;;;;4.15;1.27;;;;;;;;;;5006924;28;20032;-52
2021/12/18 03:43:24;;;;;;;3.67;1.10;;;;;;;;;;4997633;28;20029;-52
2021/12/18 03:45:51;;;;;;;4.72;0.95;;;;;;;;;;4979719;28;20036;-53
2021/12/18 03:48:19;;;;;;;8.32;0.82;;;;;;;;;;5000906;28;20469;-55
2021/12/18 03:50:47;;;;;;;7.22;1.55;;;;;;;;;;5005541;28;20022;-52
2021/12/18 03:53:15;;;;;;;8.25;1.10;;;;;;;;;;5002532;28;20077;-52
2021/12/18 03:55:42;;;;;;;4.63;0.90;;;;;;;;;;5002170;28;20124;-55
2021/12/18 03:58:09;;;;;;;7.32;2.22;;;;;;;;;;5000606;28;20034;-50
2021/12/18 04:00:37;;;;;;;9.55;1.52;;;;;;;;;;5010606;28;20141;-52
2021/12/18 04:03:07;;;;;;;15.20;1.80;;;;;;;;;;5007128;28;20027;-55
2021/12/18 04:05:34;;;;;;;4.22;0.90;;;;;;;;;;4992027;28;20030;-56
2021/12/18 04:08:08;;;;;;;12.35;1.45;;;;;;;;;;4993050;28;20030;-55
2021/12/18 04:10:37;;;;;;;6.40;1.10;;;;;;;;;;4993244;28;20030;-54
2021/12/18 04:13:05;;;;;;;6.63;2.22;;;;;;;;;;4993053;28;20030;-54
2021/12/18 04:15:32;;;;;;;3.03;0.90;;;;;;;;;;4993464;28;20042;-52
2021/12/18 04:17:59;;;;;;;5.65;0.80;;;;;;;;;;4993061;28;20032;-56
2021/12/18 04:20:29;;;;;;;6.63;0.93;;;;;;;;;;4993013;28;20027;-54
2021/12/18 04:22:56;;;;;;;6.82;1.00;;;;;;;;;;4976379;28;20077;-49
2021/12/18 04:25:23;;;;;;;7.93;1.40;;;;;;;;;;4992454;28;20029;-56
2021/12/18 04:27:51;;;;;;;3.97;1.02;;;;;;;;;;4992954;28;20030;-52
2021/12/18 04:30:18;;;;;;;2.35;0.70;;;;;;;;;;4993137;28;20049;-57
2021/12/18 04:32:46;;;;;;;7.30;1.13;;;;;;;;;;4993294;28;20030;-55
2021/12/18 04:35:13;;;;;;;8.88;1.27;;;;;;;;;;4992675;28;20046;-54
2021/12/18 04:37:40;;;;;;;5.18;0.80;;;;;;;;;;4992066;28;20030;-55
2021/12/18 04:40:08;;;;;;;6.97;1.20;;;;;;;;;;4992739;28;20057;-54
2021/12/18 04:42:35;;;;;;;3.53;0.85;;;;;;;;;;4992609;28;20049;-55
2021/12/18 04:45:02;;;;;;;4.28;0.75;;;;;;;;;;4992104;28;20030;-53
2021/12/18 04:47:29;;;;;;;3.83;0.90;;;;;;;;;;4974816;28;20094;-54
2021/12/18 04:49:56;;;;;;;7.93;1.20;;;;;;;;;;4992788;28;20037;-57
2021/12/18 04:52:24;;;;;;;1.58;0.70;;;;;;;;;;4992532;28;20431;-54
2021/12/18 04:54:51;;;;;;;3.30;1.17;;;;;;;;;;4992581;28;20096;-55
2021/12/18 04:57:18;;;;;;;6.10;0.98;;;;;;;;;;4991859;28;20026;-54
2021/12/18 04:59:45;;;;;;;4.82;1.00;;;;;;;;;;4992842;28;20026;-54
2021/12/18 05:02:23;;;;;;;5.57;0.90;;;;;;;;;;4992814;28;20030;-53
2021/12/18 05:04:51;;;;;;;6.28;1.10;;;;;;;;;;4992117;28;20026;-54
2021/12/18 05:07:21;;;;;;;4.40;0.63;;;;;;;;;;4995620;28;20033;-52
2021/12/18 05:09:48;;;;;;;5.50;0.90;;;;;;;;;;4992098;28;20287;-55
2021/12/18 05:12:15;;;;;;;3.92;0.98;;;;;;;;;;5000546;28;20022;-55
2021/12/18 05:14:42;;;;;;;4.57;0.90;;;;;;;;;;4992363;28;20103;-50
2021/12/18 05:17:09;;;;;;;4.82;1.08;;;;;;;;;;4992229;28;20030;-53
2021/12/18 05:19:36;;;;;;;5.38;1.23;;;;;;;;;;4992237;28;20426;-51
2021/12/18 05:22:04;;;;;;;8.15;0.80;;;;;;;;;;4991887;28;20397;-51
2021/12/18 05:24:31;;;;;;;7.18;0.93;;;;;;;;;;4992301;28;20034;-52
2021/12/18 05:26:58;;;;;;;3.22;1.02;;;;;;;;;;4990982;28;20029;-52
2021/12/18 05:29:26;;;;;;;3.30;0.75;;;;;;;;;;4992281;28;20061;-54
2021/12/18 05:31:53;;;;;;;5.32;0.90;;;;;;;;;;4992055;28;20030;-51
2021/12/18 05:34:25;;;;;;;5.93;0.93;;;;;;;;;;4992289;28;20026;-49
2021/12/18 05:39:26;;;;;;;2.80;0.70;;;;;;;;;;4992014;28;19964;-50
2021/12/18 05:41:53;;;;;;;3.65;0.73;;;;;;;;;;4991941;28;20545;-51
2021/12/18 05:44:21;;;;;;;3.22;0.70;;;;;;;;;;5006851;28;20041;-50
2021/12/18 05:46:49;;;;;;;2.28;0.60;;;;;;;;;;5011150;28;20497;-53
2021/12/18 05:49:16;;;;;;;5.05;0.88;;;;;;;;;;5010701;28;20527;-51
2021/12/18 05:51:43;;;;;;;2.35;0.80;;;;;;;;;;5011384;28;20022;-54
2021/12/18 05:54:11;;;;;;;8.48;1.63;;;;;;;;;;5011365;28;20607;-49
2021/12/18 05:56:39;;;;;;;2.85;0.95;;;;;;;;;;5010952;28;20757;-50
2021/12/18 05:59:06;;;;;;;4.07;1.15;;;;;;;;;;5011651;28;20061;-50
2021/12/18 06:01:33;;;;;;;6.53;1.00;;;;;;;;;;5011145;28;20021;-50
2021/12/18 06:04:00;;;;;;;4.10;1.08;;;;;;;;;;4993426;28;20053;-52
2021/12/18 06:06:31;;;;;;;3.50;1.10;;;;;;;;;;4993708;28;20030;-54
2021/12/18 06:08:58;;;;;;;5.88;0.60;;;;;;;;;;5011457;28;20496;-49
2021/12/18 06:11:28;;;;;;;2.67;0.70;;;;;;;;;;5010931;28;20038;-49
2021/12/18 06:13:55;;;;;;;5.40;1.25;;;;;;;;;;5011281;28;20758;-50
2021/12/18 06:16:22;;;;;;;4.15;0.57;;;;;;;;;;5010752;28;20038;-54
2021/12/18 06:18:50;;;;;;;1.60;0.60;;;;;;;;;;5015693;28;20021;-49
2021/12/18 06:21:18;;;;;;;5.07;1.00;;;;;;;;;;5017621;28;20026;-53
2021/12/18 06:23:49;;;;;;;1.98;0.70;;;;;;;;;;5017780;28;20749;-54
2021/12/18 06:26:17;;;;;;;2.80;1.02;;;;;;;;;;5017605;28;20036;-49
2021/12/18 06:28:44;;;;;;;2.67;0.70;;;;;;;;;;5016558;28;20607;-52
2021/12/18 06:31:11;;;;;;;4.70;0.95;;;;;;;;;;5017369;28;20112;-53
2021/12/18 06:33:38;;;;;;;3.00;0.70;;;;;;;;;;5017478;28;20478;-54
2021/12/18 06:36:05;;;;;;;2.47;0.77;;;;;;;;;;5017543;28;20382;-58
2021/12/18 06:38:33;;;;;;;3.25;0.50;;;;;;;;;;5016849;28;20030;-56
2021/12/18 06:41:00;;;;;;;2.05;0.93;;;;;;;;;;5017072;28;20105;-53
2021/12/18 06:43:27;;;;;;;2.47;0.90;;;;;;;;;;5017311;28;20362;-56
2021/12/18 06:45:54;;;;;;;2.97;0.73;;;;;;;;;;5017560;28;20025;-54
2021/12/18 06:48:21;;;;;;;3.38;0.73;;;;;;;;;;5016652;28;20105;-55
2021/12/18 06:50:50;;;;;;;2.85;1.23;;;;;;;;;;5017273;28;20025;-56
2021/12/18 06:53:17;;;;;;;5.20;1.00;;;;;;;;;;5017261;28;20524;-56
2021/12/18 06:55:44;;;;;;;2.25;0.65;;;;;;;;;;5017487;28;20030;-55
2021/12/18 06:58:11;;;;;;;3.85;0.77;;;;;;;;;;5015733;28;20497;-56
2021/12/18 07:00:39;;;;;;;3.13;0.50;;;;;;;;;;4998126;28;20083;-56
2021/12/18 07:03:06;;;;;;;2.13;0.70;;;;;;;;;;5017008;28;20026;-53
2021/12/18 07:05:33;;;;;;;1.77;0.68;;;;;;;;;;5017446;28;20474;-53
2021/12/18 07:08:00;;;;;;;3.17;0.80;;;;;;;;;;5016825;28;20026;-58
2021/12/18 07:10:27;;;;;;;5.05;1.30;;;;;;;;;;5017481;28;20029;-57
2021/12/18 07:12:54;;;;;;;2.58;0.88;;;;;;;;;;5017102;28;20022;-53
2021/12/18 07:15:21;;;;;;;4.05;1.05;;;;;;;;;;4999227;28;20030;-49
2021/12/18 07:17:48;;;;;;;4.05;0.80;;;;;;;;;;5017434;28;20032;-56
2021/12/18 07:20:15;;;;;;;5.15;0.80;;;;;;;;;;5016722;28;20568;-56
2021/12/18 07:22:42;;;;;;;8.43;1.40;;;;;;;;;;5017185;28;20143;-57
2021/12/18 07:25:09;;;;;;;1.33;0.52;;;;;;;;;;5017208;28;20097;-56
2021/12/18 07:27:37;;;;;;;2.83;0.80;;;;;;;;;;5017067;28;20048;-53
2021/12/18 07:30:05;;;;;;;2.90;0.95;;;;;;;;;;5013733;28;20485;-53
2021/12/18 07:32:32;;;;;;;4.07;0.60;;;;;;;;;;5014009;28;20037;-54
2021/12/18 07:34:59;;;;;;;3.00;0.80;;;;;;;;;;5013855;28;20033;-49
2021/12/18 07:37:26;;;;;;;6.80;0.95;;;;;;;;;;5013675;28;20405;-52
2021/12/18 07:39:53;;;;;;;3.60;0.55;;;;;;;;;;5013355;28;20100;-54
2021/12/18 07:42:21;;;;;;;4.32;0.88;;;;;;;;;;5013845;28;20022;-48
2021/12/18 07:44:48;;;;;;;4.55;1.13;;;;;;;;;;5013468;28;20385;-51
2021/12/18 07:47:16;;;;;;;2.85;0.65;;;;;;;;;;5013517;28;20552;-54
2021/12/18 07:49:43;;;;;;;2.53;1.05;;;;;;;;;;5012934;28;20030;-54
2021/12/18 07:52:12;;;;;;;2.63;0.80;;;;;;;;;;5013209;28;20022;-49
2021/12/18 07:54:39;;;;;;;2.78;0.90;;;;;;;;;;5013642;28;20077;-53
2021/12/18 07:57:06;;;;;;;2.33;0.65;;;;;;;;;;5013560;28;20034;-47
2021/12/18 07:59:33;;;;;;;4.68;1.23;;;;;;;;;;5012792;28;20022;-53
2021/12/18 08:02:01;;;;;;;7.97;1.80;;;;;;;;;;5013327;28;20026;-50
2021/12/18 08:04:28;;;;;;;2.42;0.80;;;;;;;;;;5013534;28;20054;-52
2021/12/18 08:06:55;;;;;;;3.85;0.60;;;;;;;;;;5013437;28;20030;-55
2021/12/18 08:09:22;;;;;;;1.85;0.50;;;;;;;;;;5012991;28;20053;-48
2021/12/18 08:11:49;;;;;;;6.80;1.15;;;;;;;;;;5012682;28;20026;-47
2021/12/18 08:14:16;;;;;;;0.82;0.60;;;;;;;;;;5013092;28;20026;-53
2021/12/18 08:16:43;;;;;;;4.95;1.48;;;;;;;;;;5013096;28;20362;-50
2021/12/18 08:19:10;;;;;;;2.17;1.00;;;;;;;;;;5012316;28;20021;-49
2021/12/18 08:21:37;;;;;;;4.07;0.90;;;;;;;;;;5013075;28;20112;-50
2021/12/18 08:24:04;;;;;;;1.67;0.63;;;;;;;;;;4995388;28;20021;-48
2021/12/18 08:26:31;;;;;;;2.75;0.95;;;;;;;;;;5013056;28;20061;-50
2021/12/18 08:28:59;;;;;;;3.58;0.60;;;;;;;;;;5012154;28;20025;-51
2021/12/18 08:31:26;;;;;;;5.57;0.70;;;;;;;;;;5012495;28;20034;-53
2021/12/18 08:33:53;;;;;;;2.20;0.80;;;;;;;;;;5012870;28;20030;-53
2021/12/18 08:36:20;;;;;;;2.97;0.70;;;;;;;;;;5012380;28;20120;-53
2021/12/18 08:38:47;;;;;;;2.42;0.88;;;;;;;;;;5012712;28;20033;-51
2021/12/18 08:41:16;;;;;;;2.53;0.73;;;;;;;;;;5011448;28;20539;-50
2021/12/18 08:43:43;;;;;;;2.22;1.05;;;;;;;;;;5012336;28;20084;-51
2021/12/18 08:46:10;;;;;;;2.53;0.77;;;;;;;;;;5012599;28;20030;-50
2021/12/18 08:48:37;;;;;;;6.93;1.20;;;;;;;;;;5012415;28;20026;-51
2021/12/18 08:51:04;;;;;;;3.10;1.00;;;;;;;;;;5012212;28;20034;-51
2021/12/18 08:53:31;;;;;;;2.42;0.75;;;;;;;;;;5012334;28;20073;-54
2021/12/18 08:55:58;;;;;;;4.88;1.20;;;;;;;;;;5011944;28;20030;-53
2021/12/18 08:58:26;;;;;;;4.20;1.00;;;;;;;;;;5012522;28;20084;-52
2021/12/18 09:00:53;;;;;;;3.97;1.00;;;;;;;;;;5011939;28;20544;-52
2021/12/18 09:03:20;;;;;;;3.70;0.73;;;;;;;;;;5012278;28;20026;-51
2021/12/18 09:05:47;;;;;;;5.93;1.42;;;;;;;;;;5012263;28;20026;-50
2021/12/18 09:08:14;;;;;;;4.05;1.20;;;;;;;;;;5011898;28;20036;-53
2021/12/18 09:10:41;;;;;;;8.52;1.63;;;;;;;;;;5011570;28;20029;-50
2021/12/18 09:13:09;;;;;;;6.97;1.20;;;;;;;;;;5011996;28;20025;-54
2021/12/18 09:15:36;;;;;;;5.70;1.00;;;;;;;;;;5011762;28;20033;-54
2021/12/18 09:18:03;;;;;;;5.53;0.90;;;;;;;;;;5012096;28;20080;-53
2021/12/18 09:20:31;;;;;;;4.60;1.25;;;;;;;;;;5011223;28;20026;-53
2021/12/18 09:23:00;;;;;;;2.85;1.23;;;;;;;;;;5011661;28;20030;-55
2021/12/18 09:25:28;;;;;;;6.18;1.15;;;;;;;;;;4994406;28;20109;-57
2021/12/18 09:27:59;;;;;;;4.18;0.68;;;;;;;;;;5011970;28;20030;-52
2021/12/18 09:30:26;;;;;;;5.65;0.77;;;;;;;;;;5011407;28;20386;-55
2021/12/18 09:32:53;;;;;;;5.13;1.88;;;;;;;;;;5011108;28;20097;-55
2021/12/18 09:35:21;;;;;;;14.15;1.33;;;;;;;;;;5011827;28;20022;-56
2021/12/18 09:37:48;;;;;;;3.10;0.90;;;;;;;;;;5011788;28;20478;-55
2021/12/18 09:40:17;;;;;;;6.47;0.80;;;;;;;;;;5010508;28;20026;-56
2021/12/18 09:42:44;;;;;;;7.00;1.67;;;;;;;;;;5011575;28;20108;-56
2021/12/18 09:45:11;;;;;;;5.43;1.48;;;;;;;;;;5011251;28;20033;-58
2021/12/18 09:47:39;;;;;;;8.02;1.13;;;;;;;;;;5011326;28;20022;-55
2021/12/18 09:50:07;;;;;;;6.63;1.40;;;;;;;;;;5011057;28;20022;-55
2021/12/18 09:52:35;;;;;;;3.78;1.23;;;;;;;;;;5010280;28;20045;-55
2021/12/18 09:55:03;;;;;;;7.38;1.00;;;;;;;;;;5011206;28;20371;-52
2021/12/18 09:57:30;;;;;;;5.85;1.20;;;;;;;;;;5011681;28;20482;-52
2021/12/18 09:59:57;;;;;;;3.00;0.80;;;;;;;;;;5010592;28;20029;-54
2021/12/18 10:02:24;;;;;;;11.73;1.92;;;;;;;;;;5010423;28;20041;-53
2021/12/18 10:04:51;;;;;;;2.92;1.02;;;;;;;;;;5011543;28;20426;-48
2021/12/18 10:07:20;;;;;;;11.23;1.63;;;;;;;;;;5011327;28;20025;-57
2021/12/18 10:09:48;;;;;;;9.07;1.63;;;;;;;;;;5010924;28;20478;-56
2021/12/18 10:12:17;;;;;;;5.93;1.35;;;;;;;;;;5010465;28;20033;-51
2021/12/18 10:14:51;;;;;;;7.57;1.50;;;;;;;;;;5011354;28;20513;-54
2021/12/18 10:17:30;;;;;;;5.07;0.90;;;;;;;;;;5010516;28;20389;-53
2021/12/18 10:20:17;;;;;;;4.43;1.08;;;;;;;;;;5011173;28;20092;-54
2021/12/18 10:22:44;;;;;;;5.30;1.08;;;;;;;;;;5010996;28;20080;-55
2021/12/18 10:25:12;;;;;;;7.38;1.02;;;;;;;;;;5011011;28;20042;-53
2021/12/18 10:27:42;;;;;;;5.30;1.45;;;;;;;;;;4993714;28;20097;-53
2021/12/18 10:30:20;;;;;;;6.00;1.20;;;;;;;;;;5010137;28;20029;-55
2021/12/18 10:32:58;;;;;;;3.97;1.23;;;;;;;;;;5010946;28;20517;-54
2021/12/18 10:35:42;;;;;;;3.42;1.08;;;;;;;;;;5011126;28;20029;-53
2021/12/18 10:38:10;;;;;;;6.90;1.15;;;;;;;;;;5010928;28;20026;-48
2021/12/18 10:40:45;;;;;;;6.18;1.20;;;;;;;;;;5010779;28;20092;-50
2021/12/18 10:43:13;;;;;;;6.32;1.25;;;;;;;;;;5010554;28;20040;-51
2021/12/18 10:45:40;;;;;;;5.20;1.48;;;;;;;;;;5010972;28;20026;-49
2021/12/18 10:48:08;;;;;;;5.38;1.73;;;;;;;;;;5010955;28;20021;-54
2021/12/18 10:50:41;;;;;;;11.50;2.05;;;;;;;;;;5010523;28;20022;-51
2021/12/18 10:53:14;;;;;;;7.03;1.20;;;;;;;;;;5010488;28;20054;-52
2021/12/18 10:55:44;;;;;;;6.47;1.13;;;;;;;;;;5010508;28;20477;-51
2021/12/18 10:58:13;;;;;;;4.82;1.35;;;;;;;;;;5011171;28;20022;-52
2021/12/18 11:00:52;;;;;;;5.38;1.35;;;;;;;;;;5010747;28;20018;-49
2021/12/18 11:03:21;;;;;;;5.70;1.23;;;;;;;;;;5009370;28;20032;-51
2021/12/18 11:06:06;;;;;;;10.73;1.58;;;;;;;;;;5013210;28;20100;-50
2021/12/18 11:08:36;;;;;;;6.25;1.40;;;;;;;;;;5014363;28;20025;-52
2021/12/18 11:13:53;;;;;;;3.42;1.10;;;;;;;;;;5014284;28;20041;-52
2021/12/18 11:16:22;;;;;;;8.20;1.40;;;;;;;;;;5014273;28;20100;-47
2021/12/18 11:18:49;;;;;;;5.18;1.35;;;;;;;;;;5014206;28;20032;-50
2021/12/18 11:21:16;;;;;;;4.45;1.33;;;;;;;;;;5013469;28;20112;-51
2021/12/18 11:23:56;;;;;;;8.27;1.10;;;;;;;;;;5014007;28;20089;-48
2021/12/18 11:26:24;;;;;;;7.57;1.98;;;;;;;;;;5014090;28;20022;-52
2021/12/18 11:28:52;;;;;;;5.82;1.08;;;;;;;;;;5014142;28;20095;-53
2021/12/18 11:31:19;;;;;;;8.57;1.23;;;;;;;;;;5013335;28;20080;-51
2021/12/18 11:33:47;;;;;;;4.57;1.63;;;;;;;;;;5013745;28;20104;-54
2021/12/18 11:36:14;;;;;;;5.63;1.27;;;;;;;;;;5013632;28;20045;-50
2021/12/18 11:38:43;;;;;;;5.22;1.45;;;;;;;;;;5014289;28;20105;-57
2021/12/18 11:41:17;;;;;;;6.53;1.38;;;;;;;;;;5014529;28;20112;-50
2021/12/18 11:43:46;;;;;;;19.20;3.05;;;;;;;;;;5013840;28;20022;-50
2021/12/18 11:46:42;;;;;;;5.75;1.17;;;;;;;;;;5013446;28;20041;-49
2021/12/18 11:49:11;;;;;;;6.63;1.67;;;;;;;;;;4997280;28;20375;-52
2021/12/18 11:51:38;;;;;;;11.95;1.77;;;;;;;;;;5012610;28;20034;-48
2021/12/18 11:54:25;;;;;;;5.00;1.50;;;;;;;;;;5012584;28;20409;-53
2021/12/18 11:56:52;;;;;;;6.70;1.52;;;;;;;;;;4993186;28;20085;-47
2021/12/18 11:59:39;;;;;;;4.97;1.40;;;;;;;;;;4993327;28;20540;-53
2021/12/18 12:02:06;;;;;;;4.28;1.35;;;;;;;;;;4992653;28;20018;-54
2021/12/18 12:04:51;;;;;;;9.18;1.58;;;;;;;;;;4993009;28;20027;-53
2021/12/18 12:07:20;;;;;;;10.05;2.15;;;;;;;;;;4997851;28;20470;-48
2021/12/18 12:10:10;;;;;;;5.95;1.60;;;;;;;;;;5012445;28;20696;-48
2021/12/18 12:12:51;;;;;;;6.25;1.73;;;;;;;;;;5011900;28;20053;-49
2021/12/18 12:15:18;;;;;;;11.73;1.80;;;;;;;;;;5012597;28;20036;-58
2021/12/18 12:18:00;;;;;;;6.60;1.50;;;;;;;;;;5011824;28;20033;-49
2021/12/18 12:20:33;;;;;;;10.38;1.88;;;;;;;;;;5013015;28;20109;-52
2021/12/18 12:23:02;;;;;;;5.20;1.40;;;;;;;;;;5012110;28;20549;-53
2021/12/18 12:25:34;;;;;;;7.50;1.50;;;;;;;;;;5012809;28;20088;-52
2021/12/18 12:28:05;;;;;;;7.22;1.40;;;;;;;;;;5011434;28;20077;-48
2021/12/18 12:30:34;;;;;;;9.23;1.52;;;;;;;;;;5012696;28;20069;-51
2021/12/18 12:33:03;;;;;;;9.43;1.25;;;;;;;;;;5011357;28;20030;-52
2021/12/18 12:35:30;;;;;;;9.88;1.70;;;;;;;;;;5012481;28;20026;-48
2021/12/18 12:37:57;;;;;;;4.60;1.20;;;;;;;;;;5011750;28;20037;-50
2021/12/18 12:40:34;;;;;;;11.73;1.80;;;;;;;;;;5012526;28;20109;-49
2021/12/18 12:43:15;;;;;;;10.23;1.83;;;;;;;;;;5011734;28;20034;-56
2021/12/18 12:45:44;;;;;;;5.15;1.40;;;;;;;;;;5012150;28;20042;-49
2021/12/18 12:48:11;;;;;;;13.00;2.00;;;;;;;;;;4994734;28;20030;-46
2021/12/18 12:50:38;;;;;;;7.90;1.50;;;;;;;;;;5011746;28;20030;-53
2021/12/18 12:53:07;;;;;;;9.27;1.70;;;;;;;;;;5011665;28;20038;-54
2021/12/18 12:55:41;;;;;;;9.93;1.60;;;;;;;;;;5011627;28;20095;-56
2021/12/18 12:58:19;;;;;;;9.18;1.88;;;;;;;;;;5012213;28;20080;-50
2021/12/18 13:00:47;;;;;;;9.23;1.70;;;;;;;;;;5011507;28;20386;-55
2021/12/18 13:03:18;;;;;;;8.10;1.88;;;;;;;;;;5011177;28;20025;-52
2021/12/18 13:06:05;;;;;;;9.90;2.10;;;;;;;;;;4991993;28;20041;-53
2021/12/18 13:08:33;;;;;;;11.18;1.80;;;;;;;;;;5010495;28;20038;-52
2021/12/18 13:11:01;;;;;;;9.60;1.60;;;;;;;;;;5007532;28;20053;-54
2021/12/18 13:13:33;;;;;;;9.90;2.03;;;;;;;;;;4991948;28;20026;-52
2021/12/18 13:16:02;;;;;;;8.40;1.67;;;;;;;;;;4991057;28;20104;-50
2021/12/18 13:18:34;;;;;;;6.55;1.40;;;;;;;;;;4999036;28;20266;-50
2021/12/18 13:21:02;;;;;;;10.00;1.95;;;;;;;;;;4993491;28;20022;-52
2021/12/18 13:23:47;;;;;;;8.27;2.00;;;;;;;;;;5002573;28;20025;-51
2021/12/18 13:26:17;;;;;;;6.32;1.70;;;;;;;;;;5001133;28;20026;-51
2021/12/18 13:28:52;;;;;;;12.07;2.58;;;;;;;;;;4991134;28;20026;-52
2021/12/18 13:31:22;;;;;;;11.75;1.95;;;;;;;;;;4991439;28;20025;-52
2021/12/18 13:34:00;;;;;;;7.18;1.70;;;;;;;;;;4991005;28;20022;-48
2021/12/18 13:36:39;;;;;;;8.52;1.63;;;;;;;;;;4991558;28;20450;-55
2021/12/18 13:39:10;;;;;;;9.05;1.95;;;;;;;;;;4991862;28;20089;-51
2021/12/18 13:41:38;;;;;;;7.55;1.95;;;;;;;;;;4991612;28;20478;-51
2021/12/18 13:44:05;;;;;;;5.50;1.63;;;;;;;;;;4989414;28;20038;-50
2021/12/18 13:46:32;;;;;;;7.93;1.83;;;;;;;;;;4974074;28;20117;-53
2021/12/18 13:49:00;;;;;;;10.32;2.05;;;;;;;;;;4991420;28;20069;-52
2021/12/18 13:51:28;;;;;;;7.47;2.10;;;;;;;;;;4989993;28;20038;-54
2021/12/18 13:53:57;;;;;;;3.85;1.50;;;;;;;;;;4989577;28;20133;-51
2021/12/18 13:56:25;;;;;;;10.80;2.10;;;;;;;;;;4989409;28;20449;-49
2021/12/18 13:58:52;;;;;;;11.90;2.58;;;;;;;;;;4993634;28;20033;-53
2021/12/18 14:01:29;;;;;;;10.60;2.38;;;;;;;;;;4991507;28;20014;-50
2021/12/18 14:04:02;;;;;;;11.07;2.03;;;;;;;;;;4990016;28;20019;-49
2021/12/18 14:06:34;;;;;;;15.13;3.08;;;;;;;;;;4990072;28;20113;-53
2021/12/18 14:09:08;;;;;;;10.73;3.17;;;;;;;;;;4990602;28;20557;-52
2021/12/18 14:11:37;;;;;;;11.35;3.00;;;;;;;;;;4987549;28;20038;-51
2021/12/18 14:14:06;;;;;;;17.25;2.38;;;;;;;;;;4989570;28;20030;-52
2021/12/18 14:16:34;;;;;;;10.50;2.65;;;;;;;;;;4988754;28;20057;-55
2021/12/18 14:19:03;;;;;;;14.90;2.42;;;;;;;;;;5008649;28;20026;-54
2021/12/18 14:21:34;;;;;;;13.30;2.45;;;;;;;;;;4995090;28;20089;-61
2021/12/18 14:24:02;;;;;;;10.20;2.85;;;;;;;;;;4990186;28;20625;-59
2021/12/18 14:26:30;;;;;;;17.60;2.33;;;;;;;;;;4989771;28;20042;-55
2021/12/18 14:29:09;;;;;;;16.52;3.00;;;;;;;;;;4989807;28;20033;-48
2021/12/18 14:31:38;;;;;;;11.63;2.10;;;;;;;;;;5007264;28;20046;-54
2021/12/18 14:34:11;;;;;;;14.77;2.40;;;;;;;;;;4994991;28;20362;-53
2021/12/18 14:36:42;;;;;;;16.70;4.43;;;;;;;;;;4991023;28;20145;-59
2021/12/18 14:39:17;;;;;;;13.48;2.92;;;;;;;;;;5008722;28;20463;-58
2021/12/18 14:41:54;;;;;;;12.90;3.80;;;;;;;;;;5012144;28;20112;-58
2021/12/18 14:44:21;;;;;;;10.35;2.78;;;;;;;;;;5000687;28;20099;-54
2021/12/18 14:46:48;;;;;;;14.45;3.40;;;;;;;;;;5002305;28;20067;-58
2021/12/18 14:49:15;;;;;;;21.27;3.20;;;;;;;;;;4995587;28;20033;-57
2021/12/18 14:51:43;;;;;;;14.75;2.72;;;;;;;;;;5011877;28;20038;-56
2021/12/18 14:54:10;;;;;;;14.57;2.53;;;;;;;;;;5012873;28;20549;-54
2021/12/18 14:56:37;;;;;;;17.45;2.25;;;;;;;;;;5000881;28;20049;-52
2021/12/18 14:59:16;;;;;;;14.50;3.00;;;;;;;;;;4990189;28;20026;-50
2021/12/18 15:01:44;;;;;;;16.08;3.75;;;;;;;;;;4990328;28;20027;-52
2021/12/18 15:04:19;;;;;;;14.25;3.60;;;;;;;;;;4993182;28;20415;-52
2021/12/18 15:06:46;;;;;;;12.15;2.65;;;;;;;;;;4995843;28;20079;-47
2021/12/18 15:09:15;;;;;;;14.85;2.50;;;;;;;;;;4990683;28;20022;-52
2021/12/18 15:11:43;;;;;;;20.70;4.00;;;;;;;;;;4990463;28;20037;-46
2021/12/18 15:14:13;;;;;;;16.10;2.78;;;;;;;;;;4989089;28;20053;-51
2021/12/18 15:16:45;;;;;;;13.20;2.88;;;;;;;;;;4993038;28;20033;-45
2021/12/18 15:19:20;;;;;;;18.95;3.08;;;;;;;;;;4991367;28;20030;-47
2021/12/18 15:21:48;;;;;;;14.65;2.25;;;;;;;;;;4989351;28;20033;-53
2021/12/18 15:24:17;;;;;;;13.43;4.07;;;;;;;;;;4972335;28;20022;-57
2021/12/18 15:26:44;;;;;;;11.43;2.65;;;;;;;;;;4989317;28;20722;-56
2021/12/18 15:29:13;;;;;;;16.02;3.47;;;;;;;;;;4990531;28;20677;-50
2021/12/18 15:31:40;;;;;;;19.65;3.17;;;;;;;;;;4991390;28;20096;-45
2021/12/18 15:34:10;;;;;;;7.30;2.50;;;;;;;;;;4989968;28;20386;-47
2021/12/18 15:36:38;;;;;;;13.40;2.95;;;;;;;;;;4990097;28;20049;-48
2021/12/18 15:39:06;;;;;;;22.90;3.03;;;;;;;;;;4990471;28;20703;-48